ěÝzenÝ letovÚho provozu ╚eskÚ republiky
Letiste: LKCS Aktualizace: 26.09.2022 14:31:32  UTC
 METAR LKCS 26.09. 14:30 ...
METAR LKCS 261430Z AUTO 20006KT 9999 BKN100/// 15/09 Q1006=